Prospect Harbor, ME

3:20 AM EDT on October 22, 2014 (GMT -0400)
Pigeon Hill | Change Station
CLOSE
Current Station
Personal Weather Station
Location: Steuben, ME
Elevation: 217 ft
Nearby Weather Stations
Active Advisory: Areal Flood Watch, Wind Advisory

Elev 217 ft 44.46 °N, 67.89 °W | Updated 4 seconds ago

Overcast
Overcast
48.7 °F
Feels Like 43 °F
N
15.0
Wind Variable Wind from ENE
Gusts 15.0 mph

Today
High -- | Low -- °F
--% Chance of Precip.
Yesterday
High -- | Low -- °F
Precip. -- in
6:56 AM 5:36 PM
Waning Crescent, 3% visible
Pressure 30.12 in
Visibility 10.0 miles
Clouds Few 900 ft
Overcast 7000 ft
Windchill 43 °F
Dew Point 48 °F
Humidity 98%
Rainfall 0.07 in
Snow Depth Not available.
UV 0 out of 12
Pollen .10 out of 12
Ozone Good
PM2.5 Good
Flu Activity Sporadic
METAR KBHB 220715Z AUTO 04015G22KT 10SM FEW009 OVC070 09/09 A3012 RMK AO1

More Conditions Fewer Conditions

Pressure 30.12 in
Visibility 10.0 miles
Clouds Few 900 ft
Overcast 7000 ft
Windchill 43 °F
Dew Point 48 °F
Humidity 98%
Rainfall 0.07 in
Snow Depth Not available.
UV 0 out of 12
Pollen .10 out of 12
Ozone Good
PM2.5 Good
Flu Activity Sporadic
METAR KBHB 220715Z AUTO 04015G22KT 10SM FEW009 OVC070 09/09 A3012 RMK AO1

More Conditions Fewer Conditions

10-Day Weather Forecast

Almanac

Astronomy

Oct. 22, 2014 Rise Set
Actual Time 6:56 AM EDT 5:36 PM EDT
Civil Twilight 6:26 AM EDT 6:05 PM EDT
Nautical Twilight 5:52 AM EDT 6:39 PM EDT
Astronomical Twilight 5:18 AM EDT 7:13 PM EDT
Moon 5:31 AM EDT 5:03 PM EDT
Length of Visible Light 11h 39m
Length of Day
10h 40m
Tomorrow will be 2m 53s shorter.
Waning Crescent, 3% of the Moon is Illuminated
Today
Waning Crescent
Oct 23
New
Oct 30
First Quarter
Nov 6
Full
Nov 14
Last Quarter

Today's Extremes

State Highs State Lows

Community

WunderPhotos

Upload Photos

1,763,890 photos uploaded!

Nearby

Air Quality

  Air Quality AQ Index Pollutant
Yesterday Good
OZONE
Yesterday Good
PM2.5
Current Good
OZONE
Current Good
PM2.5
Wednesday Good
OZONE
Wednesday Good
PM2.5
Thursday Good
OZONE
Thursday Good
PM2.5
Friday Good
OZONE
Friday Good
PM2.5
Saturday Good
OZONE
Saturday Good
PM2.5

Snow Depth

Station Depth Elevation
No new snow has been reported.

Earthquake Activity

City Distance Mag. Time & Date
No recent earthquake activity has been reported nearby.
Minimum magnitude displayed is 2.5.

Coastal Water Temperatures

Place Temperature
Eastport, ME 54.0 °F
Bar Harbor, ME 54.0 °F

Nearby Weather Stations